Time;durP1;ratioP1;P1;durP2;ratioP2;P2;SDS_P1;SDS_P2;PMS_P1;PMS_P2;Temp;Humidity;BMP_temperature;BMP_pressure;BME280_temperature;BME280_humidity;BME280_pressure;Samples;Min_cycle;Max_cycle;Signal;HPM_P1;HPM_P2
2024/02/16 00:00:07;;;;;;;;;;;;;;;4.78;100.00;101630.59;108325;1253;71437;-78
2024/02/16 00:02:38;;;;;;;;;;;;;;;4.77;100.00;101631.30;108301;1252;72660;-78
2024/02/16 00:05:07;;;;;;;;;;;;;;;4.78;100.00;101633.10;108337;1254;61861;-77
2024/02/16 00:07:34;;;;;;;;;;;;;;;4.78;100.00;101633.84;108309;1254;59761;-78
2024/02/16 00:10:01;;;;;;;;;;;;;;;4.79;100.00;101631.77;108261;1252;73618;-77
2024/02/16 00:12:27;;;;;;;;;;;;;;;4.79;100.00;101631.32;108376;1254;71342;-78
2024/02/16 00:14:54;;;;;;;;;;;;;;;4.78;100.00;101629.20;108292;1254;71463;-79
2024/02/16 00:17:22;;;;;;;;;;;;;;;4.77;100.00;101628.09;108293;1256;61693;-79
2024/02/16 00:19:48;;;;;;;;;;;;;;;4.74;100.00;101624.00;108337;1254;61152;-78
2024/02/16 00:22:15;;;;;;;;;;;;;;;4.75;100.00;101625.39;108298;1254;75117;-77
2024/02/16 00:24:43;;;;;;;;;;;;;;;4.76;100.00;101624.58;108288;1254;72776;-78
2024/02/16 00:27:11;;;;;;;;;;;;;;;4.76;100.00;101624.50;108285;1254;71267;-78
2024/02/16 00:29:38;;;;;;;;;;;;;;;4.77;100.00;101623.86;108238;1252;61182;-78
2024/02/16 00:32:07;;;;;;;;;;;;;;;4.76;100.00;101620.70;108324;1252;61108;-79
2024/02/16 00:34:37;;;;;;;;;;;;;;;4.72;100.00;101624.79;108372;1254;74464;-77
2024/02/16 00:37:09;;;;;;;;;;;;;;;4.71;100.00;101625.68;108237;1254;71243;-77
2024/02/16 00:39:36;;;;;;;;;;;;;;;4.72;100.00;101623.58;108254;1254;72742;-78
2024/02/16 00:42:03;;;;;;;;;;;;;;;4.72;100.00;101625.16;108173;1254;61965;-78
2024/02/16 00:44:30;;;;;;;;;;;;;;;4.75;100.00;101626.90;108307;1254;61020;-77
2024/02/16 00:46:56;;;;;;;;;;;;;;;4.75;100.00;101626.57;108343;1254;74356;-78
2024/02/16 00:49:23;;;;;;;;;;;;;;;4.75;100.00;101627.67;108353;1254;72537;-80
2024/02/16 00:51:53;;;;;;;;;;;;;;;4.77;100.00;101632.48;108385;1252;71760;-78
2024/02/16 00:54:25;;;;;;;;;;;;;;;4.78;100.00;101629.16;108358;1253;61653;-79
2024/02/16 00:57:02;;;;;;;;;;;;;;;4.78;100.00;101630.79;108382;1253;61308;-77
2024/02/16 00:59:29;;;;;;;;;;;;;;;4.78;100.00;101625.86;108369;1254;74431;-79
2024/02/16 01:01:56;;;;;;;;;;;;;;;4.78;100.00;101622.98;108348;1253;73756;-79
2024/02/16 01:04:23;;;;;;;;;;;;;;;4.77;100.00;101621.41;108345;1253;72723;-79
2024/02/16 01:06:51;;;;;;;;;;;;;;;4.77;100.00;101618.89;108313;1253;61727;-79
2024/02/16 01:09:17;;;;;;;;;;;;;;;4.75;100.00;101621.92;108353;1254;61176;-79
2024/02/16 01:11:44;;;;;;;;;;;;;;;4.75;100.00;101620.70;108340;1256;74560;-78
2024/02/16 01:14:12;;;;;;;;;;;;;;;4.77;100.00;101625.05;108414;1254;72715;-77
2024/02/16 01:16:39;;;;;;;;;;;;;;;4.81;100.00;101626.40;108377;1252;71409;-78
2024/02/16 01:19:07;;;;;;;;;;;;;;;4.85;100.00;101626.39;108446;1253;61908;-79
2024/02/16 01:21:35;;;;;;;;;;;;;;;4.86;100.00;101627.30;108230;1253;61138;-79
2024/02/16 01:24:01;;;;;;;;;;;;;;;4.87;100.00;101630.59;108350;1254;74474;-77
2024/02/16 01:26:28;;;;;;;;;;;;;;;4.84;100.00;101629.61;108411;1254;72674;-79
2024/02/16 01:28:55;;;;;;;;;;;;;;;4.81;100.00;101628.94;108257;1256;72455;-77
2024/02/16 01:31:22;;;;;;;;;;;;;;;4.78;100.00;101623.05;108257;1253;61798;-77
2024/02/16 01:33:49;;;;;;;;;;;;;;;4.77;100.00;101626.14;108248;1256;61060;-78
2024/02/16 01:36:16;;;;;;;;;;;;;;;4.78;100.00;101622.52;108264;1254;74857;-78
2024/02/16 01:38:45;;;;;;;;;;;;;;;4.80;100.00;101620.00;108270;1254;73562;-78
2024/02/16 01:41:14;;;;;;;;;;;;;;;4.79;100.00;101618.29;108281;1253;74001;-77
2024/02/16 01:43:41;;;;;;;;;;;;;;;4.81;100.00;101619.23;108344;1253;62080;-78
2024/02/16 01:46:08;;;;;;;;;;;;;;;4.86;100.00;101617.11;108359;1252;61166;-78
2024/02/16 01:48:35;;;;;;;;;;;;;;;4.89;100.00;101620.35;108363;1254;74792;-78
2024/02/16 01:51:02;;;;;;;;;;;;;;;4.89;100.00;101614.00;108331;1253;72443;-78
2024/02/16 01:53:29;;;;;;;;;;;;;;;4.89;100.00;101622.63;108092;1254;72549;-78
2024/02/16 01:55:55;;;;;;;;;;;;;;;4.88;100.00;101620.64;108272;1253;61846;-78
2024/02/16 01:58:22;;;;;;;;;;;;;;;4.89;100.00;101618.84;108311;1253;61104;-77
2024/02/16 02:00:49;;;;;;;;;;;;;;;4.89;100.00;101619.49;108340;1253;73216;-77
2024/02/16 02:03:18;;;;;;;;;;;;;;;4.91;100.00;101617.48;108362;1254;72499;-78
2024/02/16 02:05:45;;;;;;;;;;;;;;;4.91;100.00;101620.66;108341;1254;72326;-78
2024/02/16 02:08:12;;;;;;;;;;;;;;;4.90;100.00;101619.92;108229;1253;62032;-78
2024/02/16 02:10:39;;;;;;;;;;;;;;;4.94;100.00;101619.09;108248;1253;61109;-78
2024/02/16 02:13:06;;;;;;;;;;;;;;;4.97;100.00;101622.12;108301;1253;74714;-78
2024/02/16 02:15:35;;;;;;;;;;;;;;;4.98;100.00;101622.66;108233;1253;72579;-78
2024/02/16 02:18:05;;;;;;;;;;;;;;;5.00;100.00;101624.40;108331;1253;72527;-78
2024/02/16 02:20:33;;;;;;;;;;;;;;;5.01;100.00;101626.99;108366;1253;61918;-79
2024/02/16 02:23:00;;;;;;;;;;;;;;;5.02;100.00;101629.52;108324;1253;61295;-79
2024/02/16 02:25:28;;;;;;;;;;;;;;;5.03;100.00;101632.25;108318;1254;73316;-79
2024/02/16 02:27:58;;;;;;;;;;;;;;;5.02;100.00;101634.33;108296;1253;71591;-80
2024/02/16 02:30:25;;;;;;;;;;;;;;;5.02;100.00;101634.66;108326;1254;72737;-78
2024/02/16 02:32:53;;;;;;;;;;;;;;;5.06;100.00;101637.30;108256;1253;61919;-77
2024/02/16 02:35:21;;;;;;;;;;;;;;;5.11;100.00;101637.64;108309;1254;61125;-78
2024/02/16 02:37:48;;;;;;;;;;;;;;;5.14;100.00;101639.67;108244;1253;74667;-79
2024/02/16 02:40:15;;;;;;;;;;;;;;;5.14;100.00;101642.36;108243;1253;72427;-78
2024/02/16 02:42:42;;;;;;;;;;;;;;;5.16;100.00;101640.66;108285;1256;72626;-78
2024/02/16 02:45:09;;;;;;;;;;;;;;;5.16;100.00;101643.34;108281;1253;61945;-80
2024/02/16 02:47:37;;;;;;;;;;;;;;;5.15;100.00;101645.83;108313;1254;61138;-78
2024/02/16 02:50:05;;;;;;;;;;;;;;;5.15;100.00;101645.49;108278;1254;74536;-79
2024/02/16 02:52:33;;;;;;;;;;;;;;;5.16;100.00;101646.33;108287;1254;72791;-79
2024/02/16 02:55:00;;;;;;;;;;;;;;;5.18;100.00;101648.90;108287;1254;71661;-79
2024/02/16 02:57:26;;;;;;;;;;;;;;;5.15;100.00;101646.47;108315;1253;61920;-78
2024/02/16 02:59:53;;;;;;;;;;;;;;;5.09;100.00;101649.50;108342;1253;61273;-78
2024/02/16 03:02:20;;;;;;;;;;;;;;;5.06;100.00;101645.79;108273;1256;74444;-78
2024/02/16 03:04:47;;;;;;;;;;;;;;;5.06;100.00;101646.17;108379;1253;72736;-79
2024/02/16 03:07:14;;;;;;;;;;;;;;;5.04;100.00;101645.55;108249;1254;72397;-79
2024/02/16 03:09:41;;;;;;;;;;;;;;;4.97;100.00;101649.93;108241;1253;62024;-78
2024/02/16 03:12:08;;;;;;;;;;;;;;;4.87;100.00;101649.18;108430;1253;61151;-79
2024/02/16 03:14:35;;;;;;;;;;;;;;;4.80;100.00;101652.79;108441;1254;73486;-79
2024/02/16 03:17:04;;;;;;;;;;;;;;;4.71;100.00;101656.91;108315;1254;74027;-79
2024/02/16 03:19:31;;;;;;;;;;;;;;;4.65;100.00;101659.58;108283;1254;71321;-79
2024/02/16 03:21:58;;;;;;;;;;;;;;;4.60;100.00;101658.02;108299;1252;61973;-81
2024/02/16 03:24:25;;;;;;;;;;;;;;;4.59;100.00;101660.02;108319;1252;61088;-78
2024/02/16 03:26:52;;;;;;;;;;;;;;;4.57;100.00;101662.00;108409;1254;74692;-78
2024/02/16 03:29:19;;;;;;;;;;;;;;;4.55;100.00;101662.80;108362;1253;72487;-78
2024/02/16 03:31:47;;;;;;;;;;;;;;;4.55;100.00;101664.02;108335;1253;70641;-79
2024/02/16 03:34:14;;;;;;;;;;;;;;;4.53;100.00;101662.98;108376;1253;60442;-79
2024/02/16 03:36:42;;;;;;;;;;;;;;;4.50;100.00;101663.48;108251;1253;61157;-79
2024/02/16 03:39:09;;;;;;;;;;;;;;;4.49;100.00;101667.66;108236;1254;74852;-79
2024/02/16 03:41:36;;;;;;;;;;;;;;;4.47;100.00;101671.52;108299;1253;72550;-78
2024/02/16 03:44:03;;;;;;;;;;;;;;;4.45;100.00;101669.90;108272;1254;72697;-79
2024/02/16 03:46:30;;;;;;;;;;;;;;;4.42;100.00;101668.70;108456;1253;61342;-78
2024/02/16 03:48:56;;;;;;;;;;;;;;;4.39;100.00;101663.27;108338;1256;61152;-78
2024/02/16 03:51:23;;;;;;;;;;;;;;;4.38;100.00;101666.06;108268;1253;74932;-79
2024/02/16 03:53:51;;;;;;;;;;;;;;;4.37;100.00;101668.64;108310;1254;71798;-79
2024/02/16 03:56:20;;;;;;;;;;;;;;;4.38;100.00;101663.94;108376;1253;72620;-80
2024/02/16 03:58:47;;;;;;;;;;;;;;;4.39;100.00;101663.99;108405;1253;61257;-79
2024/02/16 04:01:14;;;;;;;;;;;;;;;4.42;100.00;101666.50;108376;1252;61377;-77
2024/02/16 04:03:44;;;;;;;;;;;;;;;4.45;100.00;101672.76;108185;1254;74449;-78
2024/02/16 04:06:11;;;;;;;;;;;;;;;4.49;100.00;101675.67;108275;1254;71971;-78
2024/02/16 04:08:39;;;;;;;;;;;;;;;4.52;100.00;101680.96;108263;1253;72754;-78
2024/02/16 04:11:11;;;;;;;;;;;;;;;4.53;100.00;101677.83;108292;1253;61905;-78
2024/02/16 04:13:37;;;;;;;;;;;;;;;4.52;100.00;101680.60;108296;1252;61141;-79
2024/02/16 04:16:04;;;;;;;;;;;;;;;4.50;100.00;101681.79;108330;1252;74629;-80
2024/02/16 04:18:31;;;;;;;;;;;;;;;4.53;100.00;101685.45;108270;1254;72820;-78
2024/02/16 04:20:58;;;;;;;;;;;;;;;4.54;100.00;101688.27;108234;1253;72337;-78
2024/02/16 04:23:24;;;;;;;;;;;;;;;4.55;100.00;101694.39;108314;1253;61227;-78
2024/02/16 04:25:52;;;;;;;;;;;;;;;4.55;100.00;101698.12;108266;1253;61164;-79
2024/02/16 04:28:18;;;;;;;;;;;;;;;4.57;100.00;101699.20;108340;1253;74839;-78
2024/02/16 04:30:46;;;;;;;;;;;;;;;4.58;100.00;101701.29;108415;1254;72749;-78
2024/02/16 04:33:13;;;;;;;;;;;;;;;4.57;100.00;101701.48;108322;1253;71043;-78
2024/02/16 04:35:40;;;;;;;;;;;;;;;4.59;100.00;101700.77;108285;1254;61121;-79
2024/02/16 04:38:07;;;;;;;;;;;;;;;4.61;100.00;101700.06;108406;1254;61184;-79
2024/02/16 04:40:34;;;;;;;;;;;;;;;4.62;100.00;101705.32;108303;1253;72796;-78
2024/02/16 04:43:01;;;;;;;;;;;;;;;4.61;100.00;101709.14;108347;1254;71571;-78
2024/02/16 04:45:30;;;;;;;;;;;;;;;4.58;100.00;101707.85;108295;1254;72705;-77
2024/02/16 04:47:56;;;;;;;;;;;;;;;4.56;100.00;101711.02;108215;1254;61058;-78
2024/02/16 04:50:23;;;;;;;;;;;;;;;4.50;100.00;101707.80;108304;1253;59771;-79
2024/02/16 04:52:50;;;;;;;;;;;;;;;4.47;100.00;101707.09;108344;1256;74729;-78
2024/02/16 04:55:17;;;;;;;;;;;;;;;4.44;100.00;101706.04;108395;1254;71406;-79
2024/02/16 04:57:43;;;;;;;;;;;;;;;4.45;100.00;101705.40;108417;1254;71258;-78
2024/02/16 05:00:13;;;;;;;;;;;;;;;4.48;100.00;101708.48;108280;1252;62179;-78
2024/02/16 05:02:40;;;;;;;;;;;;;;;4.45;100.00;101709.80;108394;1253;61824;-78
2024/02/16 05:05:09;;;;;;;;;;;;;;;4.45;100.00;101713.21;108380;1254;73159;-78
2024/02/16 05:07:36;;;;;;;;;;;;;;;4.49;100.00;101714.51;108649;1254;71461;-76
2024/02/16 05:10:03;;;;;;;;;;;;;;;4.50;100.00;101719.78;108957;1254;71420;-78
2024/02/16 05:12:30;;;;;;;;;;;;;;;4.50;100.00;101723.23;108969;1252;60948;-78
2024/02/16 05:14:57;;;;;;;;;;;;;;;4.53;100.00;101727.41;108968;1253;59459;-73
2024/02/16 05:17:30;;;;;;;;;;;;;;;4.53;100.00;101726.84;108495;1253;73227;-77
2024/02/16 05:19:58;;;;;;;;;;;;;;;4.53;100.00;101728.30;108466;1254;72434;-77
2024/02/16 05:22:25;;;;;;;;;;;;;;;4.54;100.00;101732.39;108335;1252;72281;-78
2024/02/16 05:24:52;;;;;;;;;;;;;;;4.56;100.00;101732.00;108439;1253;61996;-77
2024/02/16 05:27:19;;;;;;;;;;;;;;;4.56;100.00;101734.29;108326;1253;61125;-77
2024/02/16 05:29:46;;;;;;;;;;;;;;;4.55;100.00;101733.91;108277;1253;74653;-79
2024/02/16 05:32:13;;;;;;;;;;;;;;;4.53;100.00;101737.70;108228;1253;71383;-79
2024/02/16 05:34:40;;;;;;;;;;;;;;;4.49;100.00;101741.45;108337;1253;72659;-79
2024/02/16 05:37:08;;;;;;;;;;;;;;;4.47;100.00;101738.02;108292;1254;61578;-79
2024/02/16 05:39:53;;;;;;;;;;;;;;;4.42;100.00;101739.35;108555;1252;61090;-78
2024/02/16 05:42:22;;;;;;;;;;;;;;;4.38;100.00;101743.30;108260;1254;74336;-79
2024/02/16 05:44:48;;;;;;;;;;;;;;;4.35;100.00;101745.08;108229;1254;72618;-79
2024/02/16 05:47:15;;;;;;;;;;;;;;;4.32;100.00;101747.70;108357;1253;72499;-78
2024/02/16 05:49:42;;;;;;;;;;;;;;;4.32;100.00;101750.03;108387;1253;61132;-79
2024/02/16 05:52:18;;;;;;;;;;;;;;;4.33;100.00;101748.11;108354;1252;61294;-76
2024/02/16 05:54:45;;;;;;;;;;;;;;;4.32;100.00;101751.33;108221;1254;74475;-78
2024/02/16 05:57:12;;;;;;;;;;;;;;;4.31;100.00;101753.52;108191;1254;72899;-77
2024/02/16 05:59:39;;;;;;;;;;;;;;;4.33;100.00;101754.88;108276;1253;71472;-77
2024/02/16 06:02:07;;;;;;;;;;;;;;;4.35;100.00;101754.83;108214;1254;60969;-78
2024/02/16 06:04:33;;;;;;;;;;;;;;;4.37;100.00;101756.86;108384;1253;61139;-78
2024/02/16 06:07:00;;;;;;;;;;;;;;;4.38;100.00;101760.19;108287;1254;74465;-78
2024/02/16 06:09:33;;;;;;;;;;;;;;;4.42;100.00;101762.10;108207;1254;72754;-78
2024/02/16 06:12:03;;;;;;;;;;;;;;;4.43;100.00;101761.25;108267;1253;72629;-78
2024/02/16 06:14:31;;;;;;;;;;;;;;;4.43;100.00;101762.14;108384;1255;61118;-78
2024/02/16 06:16:59;;;;;;;;;;;;;;;4.40;100.00;101760.66;108385;1252;60433;-78
2024/02/16 06:19:26;;;;;;;;;;;;;;;4.39;100.00;101764.84;108489;1253;72879;-77
2024/02/16 06:21:54;;;;;;;;;;;;;;;4.38;100.00;101765.71;108408;1253;73223;-79
2024/02/16 06:24:24;;;;;;;;;;;;;;;4.35;100.00;101765.68;108338;1254;73340;-78
2024/02/16 06:26:51;;;;;;;;;;;;;;;4.32;100.00;101770.73;108268;1254;62212;-77
2024/02/16 06:29:24;;;;;;;;;;;;;;;4.32;100.00;101763.45;108341;1253;61227;-78
2024/02/16 06:31:51;;;;;;;;;;;;;;;4.35;100.00;101759.73;108363;1256;73451;-77
2024/02/16 06:34:20;;;;;;;;;;;;;;;4.37;100.00;101760.17;108361;1254;71278;-78
2024/02/16 06:36:48;;;;;;;;;;;;;;;4.40;100.00;101757.75;108324;1253;73847;-78
2024/02/16 06:39:19;;;;;;;;;;;;;;;4.42;100.00;101755.55;108294;1254;61083;-78
2024/02/16 06:41:46;;;;;;;;;;;;;;;4.46;100.00;101758.56;108211;1254;61135;-78
2024/02/16 06:44:13;;;;;;;;;;;;;;;4.48;100.00;101758.55;108451;1253;74965;-78
2024/02/16 06:46:44;;;;;;;;;;;;;;;4.49;100.00;101761.97;108425;1254;71361;-77
2024/02/16 06:49:10;;;;;;;;;;;;;;;4.50;100.00;101768.13;108479;1253;72550;-77
2024/02/16 06:51:38;;;;;;;;;;;;;;;4.52;100.00;101768.27;108397;1254;61217;-77
2024/02/16 06:54:05;;;;;;;;;;;;;;;4.52;100.00;101766.03;108315;1252;61084;-78
2024/02/16 06:56:33;;;;;;;;;;;;;;;4.51;100.00;101765.77;108382;1253;74633;-77
2024/02/16 06:59:00;;;;;;;;;;;;;;;4.50;100.00;101767.47;108368;1254;72701;-77
2024/02/16 07:01:27;;;;;;;;;;;;;;;4.52;100.00;101769.57;108307;1254;72418;-77
2024/02/16 07:03:55;;;;;;;;;;;;;;;4.56;100.00;101770.30;108244;1254;61265;-77
2024/02/16 07:06:23;;;;;;;;;;;;;;;4.61;100.00;101769.39;108393;1253;61228;-78
2024/02/16 07:08:51;;;;;;;;;;;;;;;4.67;100.00;101768.71;108447;1253;74459;-78
2024/02/16 07:11:20;;;;;;;;;;;;;;;4.71;100.00;101765.91;108443;1253;71256;-78
2024/02/16 07:13:47;;;;;;;;;;;;;;;4.73;100.00;101766.80;108413;1252;72593;-78
2024/02/16 07:16:14;;;;;;;;;;;;;;;4.70;100.00;101766.89;108361;1253;61140;-78
2024/02/16 07:18:41;;;;;;;;;;;;;;;4.74;100.00;101767.11;108201;1253;61143;-77
2024/02/16 07:21:09;;;;;;;;;;;;;;;4.78;100.00;101768.95;108335;1252;74762;-77
2024/02/16 07:23:36;;;;;;;;;;;;;;;4.79;100.00;101771.48;108177;1253;72659;-78
2024/02/16 07:26:04;;;;;;;;;;;;;;;4.78;100.00;101775.35;108157;1253;72554;-78
2024/02/16 07:28:35;;;;;;;;;;;;;;;4.77;100.00;101776.84;108414;1253;61217;-81
2024/02/16 07:31:02;;;;;;;;;;;;;;;4.81;100.00;101778.98;108225;1252;61161;-76
2024/02/16 07:33:30;;;;;;;;;;;;;;;4.88;100.00;101782.70;108304;1253;74621;-78
2024/02/16 07:35:57;;;;;;;;;;;;;;;4.92;100.00;101790.80;108301;1254;73375;-77
2024/02/16 07:38:24;;;;;;;;;;;;;;;4.92;100.00;101795.80;108235;1254;70589;-78
2024/02/16 07:40:51;;;;;;;;;;;;;;;4.92;100.00;101799.14;108264;1253;61259;-79
2024/02/16 07:43:18;;;;;;;;;;;;;;;4.96;100.00;101802.59;108252;1256;61362;-77
2024/02/16 07:45:45;;;;;;;;;;;;;;;4.98;100.00;101803.59;108219;1256;74217;-79
2024/02/16 07:48:12;;;;;;;;;;;;;;;4.98;100.00;101798.17;108185;1253;73766;-77
2024/02/16 07:50:40;;;;;;;;;;;;;;;4.96;100.00;101799.29;108317;1253;72739;-76
2024/02/16 07:53:07;;;;;;;;;;;;;;;4.95;100.00;101803.16;108392;1253;61750;-78
2024/02/16 07:55:33;;;;;;;;;;;;;;;5.03;100.00;101809.32;108334;1253;60968;-78
2024/02/16 07:58:00;;;;;;;;;;;;;;;5.11;100.00;101811.50;108336;1254;73855;-78
2024/02/16 08:00:28;;;;;;;;;;;;;;;5.13;100.00;101811.96;108308;1254;72657;-78
2024/02/16 08:02:55;;;;;;;;;;;;;;;5.10;100.00;101810.30;108367;1253;71442;-78
2024/02/16 08:05:23;;;;;;;;;;;;;;;5.10;100.00;101808.73;108358;1253;61214;-78
2024/02/16 08:07:53;;;;;;;;;;;;;;;5.10;100.00;101810.87;108236;1252;60491;-78
2024/02/16 08:10:24;;;;;;;;;;;;;;;5.06;100.00;101809.83;108264;1254;72329;-77
2024/02/16 08:12:54;;;;;;;;;;;;;;;5.02;100.00;101811.05;108286;1253;71437;-77
2024/02/16 08:15:23;;;;;;;;;;;;;;;5.00;100.00;101810.25;108232;1253;72462;-77
2024/02/16 08:17:53;;;;;;;;;;;;;;;4.98;100.00;101809.71;108256;1253;61065;-77
2024/02/16 08:20:21;;;;;;;;;;;;;;;4.97;100.00;101810.76;108373;1253;61009;-77
2024/02/16 08:22:48;;;;;;;;;;;;;;;4.97;100.00;101813.23;108308;1252;74696;-79
2024/02/16 08:25:15;;;;;;;;;;;;;;;4.98;100.00;101811.83;108307;1253;71430;-78
2024/02/16 08:27:42;;;;;;;;;;;;;;;5.03;100.00;101813.55;108202;1254;72976;-77
2024/02/16 08:30:11;;;;;;;;;;;;;;;5.06;100.00;101812.88;108213;1253;61268;-77
2024/02/16 08:32:39;;;;;;;;;;;;;;;5.10;100.00;101813.04;108302;1253;61135;-77
2024/02/16 08:35:09;;;;;;;;;;;;;;;5.13;100.00;101817.25;108498;1253;75155;-79
2024/02/16 08:37:36;;;;;;;;;;;;;;;5.13;100.00;101820.73;108392;1254;72756;-78
2024/02/16 08:40:04;;;;;;;;;;;;;;;5.14;100.00;101821.27;108364;1254;72562;-79
2024/02/16 08:42:32;;;;;;;;;;;;;;;5.22;100.00;101820.00;108321;1253;61326;-77
2024/02/16 08:45:00;;;;;;;;;;;;;;;5.34;100.00;101815.16;108316;1253;61122;-78
2024/02/16 08:47:27;;;;;;;;;;;;;;;5.48;100.00;101810.83;108351;1254;74654;-78
2024/02/16 08:49:54;;;;;;;;;;;;;;;5.55;100.00;101808.08;108289;1253;72631;-79
2024/02/16 08:52:26;;;;;;;;;;;;;;;5.62;100.00;101810.73;108408;1253;72414;-78
2024/02/16 08:54:57;;;;;;;;;;;;;;;5.71;100.00;101812.18;108285;1253;60064;-78
2024/02/16 08:57:25;;;;;;;;;;;;;;;5.74;100.00;101810.45;108350;1253;61253;-78
2024/02/16 08:59:59;;;;;;;;;;;;;;;5.75;100.00;101809.27;108340;1256;73471;-78
2024/02/16 09:02:31;;;;;;;;;;;;;;;5.77;100.00;101809.45;108351;1254;71335;-78
2024/02/16 09:04:58;;;;;;;;;;;;;;;5.79;100.00;101811.58;108389;1253;73727;-78
2024/02/16 09:07:26;;;;;;;;;;;;;;;5.80;100.00;101810.45;108222;1254;61064;-78
2024/02/16 09:10:00;;;;;;;;;;;;;;;5.80;100.00;101807.60;108215;1254;61018;-77
2024/02/16 09:12:40;;;;;;;;;;;;;;;5.84;100.00;101808.31;108265;1256;74676;-78
2024/02/16 09:15:08;;;;;;;;;;;;;;;5.85;100.00;101802.93;108226;1256;71650;-78
2024/02/16 09:17:42;;;;;;;;;;;;;;;5.87;100.00;101800.09;108371;1254;72703;-78
2024/02/16 09:20:22;;;;;;;;;;;;;;;5.95;100.00;101796.08;108194;1253;61135;-79
2024/02/16 09:22:58;;;;;;;;;;;;;;;5.99;100.00;101800.88;108371;1253;61307;-79
2024/02/16 09:25:28;;;;;;;;;;;;;;;6.01;100.00;101795.46;108337;1254;74929;-79
2024/02/16 09:27:59;;;;;;;;;;;;;;;5.99;100.00;101797.49;108191;1253;74021;-78
2024/02/16 09:30:29;;;;;;;;;;;;;;;5.94;100.00;101797.45;108222;1254;71504;-77
2024/02/16 09:32:55;;;;;;;;;;;;;;;5.79;100.00;101801.15;108209;1256;61093;-78
2024/02/16 09:35:22;;;;;;;;;;;;;;;5.68;100.00;101802.25;108261;1254;61301;-78
2024/02/16 09:37:50;;;;;;;;;;;;;;;5.63;100.00;101803.33;108408;1252;74681;-77
2024/02/16 09:40:18;;;;;;;;;;;;;;;5.66;100.00;101802.23;108367;1253;73033;-78
2024/02/16 09:42:52;;;;;;;;;;;;;;;5.73;100.00;101802.73;108360;1256;71622;-77
2024/02/16 09:45:23;;;;;;;;;;;;;;;5.77;100.00;101806.52;108264;1253;61448;-78
2024/02/16 09:47:49;;;;;;;;;;;;;;;5.86;100.00;101802.17;108434;1254;61012;-78
2024/02/16 09:50:33;;;;;;;;;;;;;;;5.85;100.00;101800.41;108434;1254;73934;-79
2024/02/16 09:53:01;;;;;;;;;;;;;;;5.78;100.00;101795.67;108243;1254;240590;-78
2024/02/16 09:55:29;;;;;;;;;;;;;;;5.69;100.00;101793.45;108244;1253;71461;-78
2024/02/16 09:57:59;;;;;;;;;;;;;;;5.67;100.00;101791.77;108174;1254;61123;-77
2024/02/16 10:00:26;;;;;;;;;;;;;;;5.72;100.00;101793.27;108415;1254;61173;-78
2024/02/16 10:02:53;;;;;;;;;;;;;;;5.78;100.00;101791.42;108385;1253;74511;-78
2024/02/16 10:05:21;;;;;;;;;;;;;;;5.80;100.00;101794.66;108415;1253;72038;-78
2024/02/16 10:07:48;;;;;;;;;;;;;;;5.85;100.00;101798.62;108435;1256;73040;-81
2024/02/16 10:10:29;;;;;;;;;;;;;;;5.86;100.00;101794.50;108326;1253;61270;-77
2024/02/16 10:13:03;;;;;;;;;;;;;;;5.94;100.00;101797.20;108349;1254;61173;-79
2024/02/16 10:15:31;;;;;;;;;;;;;;;6.01;100.00;101796.89;108328;1256;74880;-78
2024/02/16 10:18:02;;;;;;;;;;;;;;;6.09;100.00;101796.52;108252;1254;72783;-77
2024/02/16 10:20:30;;;;;;;;;;;;;;;6.16;100.00;101795.46;108296;1256;73865;-78
2024/02/16 10:23:09;;;;;;;;;;;;;;;6.14;100.00;101796.35;108270;1253;61298;-78
2024/02/16 10:25:49;;;;;;;;;;;;;;;6.20;100.00;101797.96;108381;1253;61256;-79
2024/02/16 10:28:30;;;;;;;;;;;;;;;6.27;100.00;101798.61;108337;1254;74748;-78
2024/02/16 10:30:58;;;;;;;;;;;;;;;6.28;100.00;101801.02;108282;1253;73653;-79
2024/02/16 10:33:25;;;;;;;;;;;;;;;6.30;100.00;101805.16;108259;1254;72563;-79
2024/02/16 10:35:59;;;;;;;;;;;;;;;6.32;100.00;101806.02;108195;1253;61284;-77
2024/02/16 10:38:27;;;;;;;;;;;;;;;6.36;100.00;101806.25;108224;1254;61090;-78
2024/02/16 10:40:54;;;;;;;;;;;;;;;6.38;100.00;101803.39;108251;1253;74555;-78
2024/02/16 10:43:22;;;;;;;;;;;;;;;6.40;100.00;101802.98;108252;1252;72877;-78
2024/02/16 10:45:52;;;;;;;;;;;;;;;6.40;100.00;101806.66;108278;1253;71515;-79
2024/02/16 10:48:21;;;;;;;;;;;;;;;6.40;100.00;101799.92;108210;1254;61221;-80
2024/02/16 10:50:50;;;;;;;;;;;;;;;6.38;100.00;101799.88;108386;1254;59478;-78
2024/02/16 10:53:21;;;;;;;;;;;;;;;6.31;100.00;101800.66;108219;1254;74364;-77
2024/02/16 10:55:48;;;;;;;;;;;;;;;6.28;100.00;101801.88;108332;1253;72848;-78
2024/02/16 10:58:16;;;;;;;;;;;;;;;6.28;100.00;101800.21;108313;1254;72513;-78
2024/02/16 11:00:50;;;;;;;;;;;;;;;6.31;100.00;101804.83;108224;1253;62182;-78
2024/02/16 11:03:17;;;;;;;;;;;;;;;6.33;100.00;101802.19;108452;1254;61250;-77
2024/02/16 11:05:46;;;;;;;;;;;;;;;6.37;100.00;101798.45;108273;1253;73519;-78
2024/02/16 11:08:16;;;;;;;;;;;;;;;6.36;100.00;101795.51;108327;1253;71177;-79
2024/02/16 11:10:59;;;;;;;;;;;;;;;6.34;100.00;101792.19;108360;1253;71719;-79
2024/02/16 11:13:27;;;;;;;;;;;;;;;6.37;100.00;101791.29;108273;1253;61222;-79
2024/02/16 11:15:59;;;;;;;;;;;;;;;6.41;100.00;101784.63;108385;1254;60025;-79
2024/02/16 11:18:30;;;;;;;;;;;;;;;6.49;100.00;101782.57;108339;1253;73659;-78
2024/02/16 11:21:00;;;;;;;;;;;;;;;6.56;100.00;101779.69;108375;1254;71627;-77
2024/02/16 11:23:29;;;;;;;;;;;;;;;6.63;100.00;101775.70;108311;1253;73800;-80
2024/02/16 11:26:02;;;;;;;;;;;;;;;6.71;100.00;101780.91;108318;1254;61141;-79
2024/02/16 11:28:34;;;;;;;;;;;;;;;6.75;100.00;101779.16;108312;1253;61266;-78
2024/02/16 11:31:03;;;;;;;;;;;;;;;6.75;100.00;101781.01;108385;1254;73241;-78
2024/02/16 11:33:30;;;;;;;;;;;;;;;6.76;100.00;101774.83;108360;1254;72108;-77
2024/02/16 11:35:58;;;;;;;;;;;;;;;6.76;100.00;101774.13;108297;1253;72840;-79
2024/02/16 11:38:25;;;;;;;;;;;;;;;6.76;100.00;101773.80;108305;1254;61102;-78
2024/02/16 11:41:03;;;;;;;;;;;;;;;6.79;100.00;101777.90;108328;1253;61256;-77
2024/02/16 11:43:34;;;;;;;;;;;;;;;6.85;100.00;101777.50;108244;1254;74533;-77
2024/02/16 11:46:13;;;;;;;;;;;;;;;6.90;100.00;101775.91;108418;1254;72795;-78
2024/02/16 11:48:41;;;;;;;;;;;;;;;6.91;100.00;101772.96;108257;1253;74044;-78
2024/02/16 11:51:08;;;;;;;;;;;;;;;6.89;100.00;101774.96;108399;1254;61115;-78
2024/02/16 11:53:35;;;;;;;;;;;;;;;6.89;100.00;101774.77;108280;1253;61303;-78
2024/02/16 11:56:02;;;;;;;;;;;;;;;6.89;100.00;101770.14;108338;1256;73339;-78
2024/02/16 11:58:30;;;;;;;;;;;;;;;6.87;100.00;101769.81;108456;1253;72841;-79
2024/02/16 12:00:59;;;;;;;;;;;;;;;6.86;100.00;101772.61;108347;1253;71286;-78
2024/02/16 12:03:31;;;;;;;;;;;;;;;6.79;100.00;101773.36;108314;1254;61975;-78
2024/02/16 12:05:59;;;;;;;;;;;;;;;6.72;100.00;101772.79;108386;1254;61147;-77
2024/02/16 12:08:33;;;;;;;;;;;;;;;6.66;100.00;101769.54;108397;1254;74761;-78
2024/02/16 12:11:01;;;;;;;;;;;;;;;6.61;100.00;101768.91;108370;1254;73697;-79
2024/02/16 12:13:28;;;;;;;;;;;;;;;6.59;100.00;101769.33;108120;1259;73798;-78
2024/02/16 12:15:56;;;;;;;;;;;;;;;6.56;100.00;101771.80;108201;1254;60523;-77
2024/02/16 12:18:25;;;;;;;;;;;;;;;6.52;100.00;101766.69;108225;1254;61120;-79
2024/02/16 12:20:58;;;;;;;;;;;;;;;6.46;100.00;101771.83;108344;1254;74581;-78
2024/02/16 12:23:25;;;;;;;;;;;;;;;6.40;100.00;101770.36;108377;1254;72872;-80
2024/02/16 12:25:53;;;;;;;;;;;;;;;6.39;100.00;101773.10;108373;1253;70948;-79
2024/02/16 12:28:23;;;;;;;;;;;;;;;6.39;100.00;101770.07;108290;1253;61297;-79
2024/02/16 12:30:50;;;;;;;;;;;;;;;6.38;100.00;101769.98;108341;1254;61114;-78